Time;durP1;ratioP1;P1;durP2;ratioP2;P2;SDS_P1;SDS_P2;PMS_P1;PMS_P2;Temp;Humidity;BMP_temperature;BMP_pressure;BME280_temperature;BME280_humidity;BME280_pressure;Samples;Min_cycle;Max_cycle;Signal;HPM_P1;HPM_P2
2022/06/11 00:01:04;;;;;;;5.32;4.32;;;;;;;;;;4207005;34;20101;-66
2022/06/11 00:34:58;;;;;;;;;;;;;;;;;;4407097;28;20102;-66
2022/06/11 00:37:30;;;;;;;12.77;5.43;;;;;;;;;;4224581;33;19968;-66
2022/06/11 00:39:56;;;;;;;9.25;5.12;;;;;;;;;;4215383;34;20105;-66
2022/06/11 00:42:27;;;;;;;6.05;4.57;;;;;;;;;;4218780;34;20152;-66
2022/06/11 00:45:16;;;;;;;7.12;4.62;;;;;;;;;;4214178;33;20128;-67
2022/06/11 00:47:44;;;;;;;6.68;4.40;;;;;;;;;;4219816;33;20207;-66
2022/06/11 00:50:27;;;;;;;7.15;4.90;;;;;;;;;;4219440;33;20429;-66
2022/06/11 00:52:55;;;;;;;7.12;4.85;;;;;;;;;;4227263;33;20395;-67
2022/06/11 00:55:23;;;;;;;8.88;5.60;;;;;;;;;;4205499;34;20117;-67
2022/06/11 00:58:02;;;;;;;6.07;5.00;;;;;;;;;;4205855;34;20109;-67
2022/06/11 01:00:47;;;;;;;6.65;4.97;;;;;;;;;;4205543;34;20425;-67
2022/06/11 01:03:17;;;;;;;5.53;4.60;;;;;;;;;;4194110;34;20129;-67
2022/06/11 01:05:49;;;;;;;7.47;5.28;;;;;;;;;;4205640;34;20109;-67
2022/06/11 01:08:30;;;;;;;6.37;4.87;;;;;;;;;;4217111;34;20216;-66
2022/06/11 01:11:14;;;;;;;6.47;4.65;;;;;;;;;;4216368;33;20200;-67
2022/06/11 01:13:52;;;;;;;6.90;3.67;;;;;;;;;;4232662;33;20104;-66
2022/06/11 01:16:44;;;;;;;6.10;5.20;;;;;;;;;;4232621;33;20093;-67
2022/06/11 01:19:44;;;;;;;7.97;4.87;;;;;;;;;;4220758;33;20136;-67
2022/06/11 01:22:28;;;;;;;6.55;4.45;;;;;;;;;;4220326;33;20085;-66
2022/06/11 01:25:16;;;;;;;7.00;4.53;;;;;;;;;;4230801;33;20123;-67
2022/06/11 01:28:03;;;;;;;5.37;4.40;;;;;;;;;;4232449;33;20135;-67
2022/06/11 01:30:37;;;;;;;7.28;5.22;;;;;;;;;;4231133;33;20114;-67
2022/06/11 01:33:25;;;;;;;8.95;4.80;;;;;;;;;;4219528;33;20528;-67
2022/06/11 01:35:56;;;;;;;9.27;5.07;;;;;;;;;;4218420;33;20117;-67
2022/06/11 01:38:39;;;;;;;9.05;5.72;;;;;;;;;;4205468;34;20192;-68
2022/06/11 01:41:21;;;;;;;6.68;4.82;;;;;;;;;;4205491;34;20208;-68
2022/06/11 01:43:50;;;;;;;6.30;4.37;;;;;;;;;;4205553;34;20129;-68
2022/06/11 01:46:38;;;;;;;6.10;5.07;;;;;;;;;;4205244;34;20212;-68
2022/06/11 01:49:07;;;;;;;9.32;5.15;;;;;;;;;;4205075;34;20124;-68
2022/06/11 01:51:46;;;;;;;9.55;4.87;;;;;;;;;;4205409;34;20121;-68
2022/06/11 01:54:31;;;;;;;6.70;4.85;;;;;;;;;;4193842;34;20144;-68
2022/06/11 01:57:26;;;;;;;8.55;6.03;;;;;;;;;;4218048;34;20156;-67
2022/06/11 02:00:10;;;;;;;5.35;4.85;;;;;;;;;;4216195;34;20224;-68
2022/06/11 02:02:56;;;;;;;6.70;5.53;;;;;;;;;;4205145;34;20167;-68
2022/06/11 02:06:00;;;;;;;6.72;5.03;;;;;;;;;;4212664;34;20124;-67
2022/06/11 02:08:53;;;;;;;6.75;5.20;;;;;;;;;;4217973;34;20201;-67
2022/06/11 02:11:36;;;;;;;9.02;4.85;;;;;;;;;;4212614;33;20113;-67
2022/06/11 02:14:14;;;;;;;6.22;4.20;;;;;;;;;;4219049;33;20184;-67
2022/06/11 02:17:02;;;;;;;7.57;4.75;;;;;;;;;;4231939;33;20107;-67
2022/06/11 02:19:31;;;;;;;9.32;5.53;;;;;;;;;;4227270;33;20117;-67
2022/06/11 02:22:09;;;;;;;8.25;5.35;;;;;;;;;;4218948;33;20286;-68
2022/06/11 02:24:42;;;;;;;5.80;4.72;;;;;;;;;;4219141;33;20097;-68
2022/06/11 02:27:16;;;;;;;7.30;5.47;;;;;;;;;;4218674;33;20105;-67
2022/06/11 02:29:42;;;;;;;6.35;5.30;;;;;;;;;;4218917;33;20140;-67
2022/06/11 02:32:12;;;;;;;6.82;5.32;;;;;;;;;;4231890;33;20119;-67
2022/06/11 02:34:48;;;;;;;8.85;4.97;;;;;;;;;;4218464;33;20120;-67
2022/06/11 02:37:30;;;;;;;6.62;4.85;;;;;;;;;;4225698;33;20113;-67
2022/06/11 02:40:00;;;;;;;7.70;5.22;;;;;;;;;;4204764;34;20118;-68
2022/06/11 02:42:26;;;;;;;6.25;5.15;;;;;;;;;;4204603;34;20109;-67
2022/06/11 02:44:53;;;;;;;6.18;4.60;;;;;;;;;;4217888;34;20197;-68
2022/06/11 02:47:20;;;;;;;5.82;4.97;;;;;;;;;;4204608;34;20109;-68
2022/06/11 02:49:47;;;;;;;9.45;5.28;;;;;;;;;;4204786;34;20110;-67
2022/06/11 02:52:17;;;;;;;5.37;4.43;;;;;;;;;;4204553;34;20133;-68
2022/06/11 02:54:44;;;;;;;5.95;5.07;;;;;;;;;;4204617;34;20481;-67
2022/06/11 02:57:14;;;;;;;7.07;4.72;;;;;;;;;;4204416;34;20682;-68
2022/06/11 02:59:42;;;;;;;5.68;5.10;;;;;;;;;;4217564;34;20117;-67
2022/06/11 03:02:08;;;;;;;5.57;5.07;;;;;;;;;;4204390;34;20124;-68
2022/06/11 03:04:34;;;;;;;5.62;4.75;;;;;;;;;;4204406;34;20548;-68
2022/06/11 03:07:01;;;;;;;6.25;5.28;;;;;;;;;;4204483;34;20109;-68
2022/06/11 03:09:30;;;;;;;11.43;5.07;;;;;;;;;;4217310;34;20090;-68
2022/06/11 03:11:57;;;;;;;5.82;5.18;;;;;;;;;;4204238;34;20204;-67
2022/06/11 03:14:23;;;;;;;6.35;5.60;;;;;;;;;;4204383;34;20116;-67
2022/06/11 03:16:50;;;;;;;10.52;4.90;;;;;;;;;;4204286;34;20204;-67
2022/06/11 03:19:18;;;;;;;8.32;4.97;;;;;;;;;;4217217;34;20173;-67
2022/06/11 03:21:46;;;;;;;7.85;5.20;;;;;;;;;;4203893;34;20113;-67
2022/06/11 03:24:12;;;;;;;7.93;5.37;;;;;;;;;;4206349;34;20124;-67
2022/06/11 03:26:38;;;;;;;5.93;5.15;;;;;;;;;;4219078;34;20117;-68
2022/06/11 03:29:05;;;;;;;7.45;4.70;;;;;;;;;;4206036;34;20124;-67
2022/06/11 03:31:31;;;;;;;8.40;5.57;;;;;;;;;;4219262;34;20756;-68
2022/06/11 03:33:58;;;;;;;10.18;5.22;;;;;;;;;;4206353;34;20137;-67
2022/06/11 03:36:24;;;;;;;8.93;5.18;;;;;;;;;;4219420;34;20089;-67
2022/06/11 03:38:50;;;;;;;7.20;5.60;;;;;;;;;;4206072;34;20101;-67
2022/06/11 03:41:17;;;;;;;8.13;5.50;;;;;;;;;;4219320;34;20430;-67
2022/06/11 03:43:44;;;;;;;6.40;5.50;;;;;;;;;;4206151;34;20113;-67
2022/06/11 03:46:10;;;;;;;6.20;5.40;;;;;;;;;;4206559;34;20225;-67
2022/06/11 03:48:37;;;;;;;8.05;5.95;;;;;;;;;;4206123;34;20177;-67
2022/06/11 03:51:04;;;;;;;7.10;5.43;;;;;;;;;;4219085;34;20117;-67
2022/06/11 03:53:30;;;;;;;5.70;5.10;;;;;;;;;;4219216;34;20132;-67
2022/06/11 03:55:57;;;;;;;5.35;4.82;;;;;;;;;;4219095;34;20120;-67
2022/06/11 03:58:23;;;;;;;12.60;5.60;;;;;;;;;;4206658;34;20519;-67
2022/06/11 04:03:35;;;;;;;9.18;6.03;;;;;;;;;;4218961;34;20128;-67
2022/06/11 04:06:02;;;;;;;10.05;5.70;;;;;;;;;;4205970;34;20120;-68
2022/06/11 04:08:28;;;;;;;5.78;5.15;;;;;;;;;;4206204;34;20452;-67
2022/06/11 04:10:56;;;;;;;7.50;6.03;;;;;;;;;;4217646;34;20121;-67
2022/06/11 04:13:24;;;;;;;8.73;5.60;;;;;;;;;;4218878;34;20141;-68
2022/06/11 04:15:50;;;;;;;6.53;5.55;;;;;;;;;;4218970;34;20105;-67
2022/06/11 04:18:26;;;;;;;5.70;4.90;;;;;;;;;;4218843;34;20179;-67
2022/06/11 04:20:53;;;;;;;7.72;6.00;;;;;;;;;;4206233;34;20114;-67
2022/06/11 04:23:19;;;;;;;6.30;5.35;;;;;;;;;;4206013;34;20141;-68
2022/06/11 04:25:45;;;;;;;5.30;4.80;;;;;;;;;;4206171;34;20521;-68
2022/06/11 04:28:12;;;;;;;8.48;6.05;;;;;;;;;;4218634;34;20192;-67
2022/06/11 04:30:38;;;;;;;8.65;5.95;;;;;;;;;;4205855;34;20457;-67
2022/06/11 04:33:05;;;;;;;6.32;5.35;;;;;;;;;;4218554;34;20109;-67
2022/06/11 04:35:32;;;;;;;10.70;5.55;;;;;;;;;;4205253;34;20112;-67
2022/06/11 04:37:58;;;;;;;6.97;5.32;;;;;;;;;;4205851;34;20105;-67
2022/06/11 04:40:24;;;;;;;14.57;6.57;;;;;;;;;;4217282;34;20590;-68
2022/06/11 04:42:50;;;;;;;7.03;6.00;;;;;;;;;;4206088;34;20101;-68
2022/06/11 04:45:18;;;;;;;8.45;5.78;;;;;;;;;;4205857;34;20123;-67
2022/06/11 04:47:45;;;;;;;11.23;6.82;;;;;;;;;;4205910;34;20093;-67
2022/06/11 04:50:15;;;;;;;12.18;6.47;;;;;;;;;;4218847;34;20205;-67
2022/06/11 04:52:41;;;;;;;7.12;5.68;;;;;;;;;;4194152;34;20118;-67
2022/06/11 04:55:08;;;;;;;7.22;5.87;;;;;;;;;;4205684;34;20120;-68
2022/06/11 04:57:34;;;;;;;5.95;5.35;;;;;;;;;;4218496;34;20117;-67
2022/06/11 05:00:00;;;;;;;5.97;5.00;;;;;;;;;;4205786;34;20132;-68
2022/06/11 05:02:26;;;;;;;7.32;5.65;;;;;;;;;;4217104;34;20093;-68
2022/06/11 05:04:52;;;;;;;9.75;5.70;;;;;;;;;;4206006;34;20215;-67
2022/06/11 05:07:20;;;;;;;7.40;6.00;;;;;;;;;;4218604;34;20184;-68
2022/06/11 05:09:47;;;;;;;5.95;5.35;;;;;;;;;;4205737;34;20315;-68
2022/06/11 05:12:13;;;;;;;6.10;5.50;;;;;;;;;;4218300;34;20117;-68
2022/06/11 05:14:39;;;;;;;9.88;6.15;;;;;;;;;;4218388;34;20113;-68
2022/06/11 05:17:05;;;;;;;7.75;5.90;;;;;;;;;;4218384;34;20521;-68
2022/06/11 05:19:31;;;;;;;6.22;5.62;;;;;;;;;;4218331;34;20229;-68
2022/06/11 05:21:57;;;;;;;6.53;5.65;;;;;;;;;;4205653;34;20101;-68
2022/06/11 05:24:23;;;;;;;6.37;5.78;;;;;;;;;;4218654;34;20578;-67
2022/06/11 05:26:56;;;;;;;7.03;6.18;;;;;;;;;;4218421;34;20111;-68
2022/06/11 05:29:35;;;;;;;6.35;5.47;;;;;;;;;;4205392;34;20181;-68
2022/06/11 05:32:01;;;;;;;7.53;6.18;;;;;;;;;;4218291;34;20597;-68
2022/06/11 05:34:28;;;;;;;9.18;5.95;;;;;;;;;;4205367;34;20109;-67
2022/06/11 05:36:55;;;;;;;7.10;6.40;;;;;;;;;;4218339;34;20093;-67
2022/06/11 05:39:21;;;;;;;8.77;5.50;;;;;;;;;;4218336;34;20152;-67
2022/06/11 05:41:47;;;;;;;6.65;5.80;;;;;;;;;;4205174;34;20113;-67
2022/06/11 05:44:13;;;;;;;6.20;5.22;;;;;;;;;;4218273;34;20209;-67
2022/06/11 05:46:40;;;;;;;5.82;5.20;;;;;;;;;;4218025;34;20117;-67
2022/06/11 05:49:11;;;;;;;5.85;5.22;;;;;;;;;;4218125;34;20105;-67
2022/06/11 05:51:41;;;;;;;6.65;5.28;;;;;;;;;;4205452;34;20212;-66
2022/06/11 05:54:10;;;;;;;7.37;6.12;;;;;;;;;;4193608;34;20121;-67
2022/06/11 05:56:37;;;;;;;9.98;5.03;;;;;;;;;;4205094;34;20117;-67
2022/06/11 05:59:07;;;;;;;8.48;5.72;;;;;;;;;;4204997;34;20514;-66
2022/06/11 06:01:36;;;;;;;7.90;6.22;;;;;;;;;;4218060;34;20606;-67
2022/06/11 06:04:03;;;;;;;7.87;5.60;;;;;;;;;;4218258;34;20141;-66
2022/06/11 06:06:29;;;;;;;8.88;5.47;;;;;;;;;;4218077;34;20565;-66
2022/06/11 06:08:55;;;;;;;6.30;5.20;;;;;;;;;;4217850;34;20122;-67
2022/06/11 06:11:21;;;;;;;8.77;5.43;;;;;;;;;;4205055;34;20117;-67
2022/06/11 06:13:47;;;;;;;7.90;6.68;;;;;;;;;;4216568;34;20118;-66
2022/06/11 06:16:18;;;;;;;9.68;5.32;;;;;;;;;;4217884;34;20128;-67
2022/06/11 06:18:45;;;;;;;10.40;6.40;;;;;;;;;;4204998;34;20204;-66
2022/06/11 06:21:11;;;;;;;7.00;5.57;;;;;;;;;;4217762;34;20465;-66
2022/06/11 06:23:38;;;;;;;6.97;5.72;;;;;;;;;;4204898;34;20539;-67
2022/06/11 06:26:04;;;;;;;6.70;6.00;;;;;;;;;;4204747;34;20116;-67
2022/06/11 06:28:31;;;;;;;7.68;5.32;;;;;;;;;;4216273;34;20110;-67
2022/06/11 06:30:58;;;;;;;9.05;5.20;;;;;;;;;;4217817;34;20108;-67
2022/06/11 06:33:30;;;;;;;10.60;5.15;;;;;;;;;;4217610;34;20473;-67
2022/06/11 06:35:59;;;;;;;7.97;5.12;;;;;;;;;;4204974;34;20649;-67
2022/06/11 06:38:26;;;;;;;8.15;5.22;;;;;;;;;;4204618;34;20518;-67
2022/06/11 06:40:52;;;;;;;5.03;4.53;;;;;;;;;;4204784;34;20105;-67
2022/06/11 06:43:18;;;;;;;7.37;5.03;;;;;;;;;;4217491;34;20453;-68
2022/06/11 06:45:45;;;;;;;7.95;5.68;;;;;;;;;;4204900;34;20871;-67
2022/06/11 06:48:11;;;;;;;6.68;5.10;;;;;;;;;;4204515;34;20196;-67
2022/06/11 06:50:37;;;;;;;6.20;5.00;;;;;;;;;;4217584;34;20482;-67
2022/06/11 06:53:04;;;;;;;5.60;5.03;;;;;;;;;;4217439;34;20212;-67
2022/06/11 06:55:30;;;;;;;7.55;5.10;;;;;;;;;;4217400;34;20116;-67
2022/06/11 06:57:56;;;;;;;12.00;5.10;;;;;;;;;;4218782;34;20113;-67
2022/06/11 07:00:22;;;;;;;6.03;4.97;;;;;;;;;;4219537;34;20530;-67
2022/06/11 07:02:48;;;;;;;5.20;4.57;;;;;;;;;;4206591;34;20112;-67
2022/06/11 07:05:16;;;;;;;5.90;4.60;;;;;;;;;;4218118;34;20196;-67
2022/06/11 07:07:42;;;;;;;5.95;4.78;;;;;;;;;;4217961;34;20101;-67
2022/06/11 07:10:09;;;;;;;8.77;5.05;;;;;;;;;;4206854;34;20129;-68
2022/06/11 07:12:35;;;;;;;5.53;4.65;;;;;;;;;;4206744;34;20105;-67
2022/06/11 07:15:01;;;;;;;7.90;5.15;;;;;;;;;;4206664;34;20125;-67
2022/06/11 07:17:33;;;;;;;6.32;4.90;;;;;;;;;;4206783;34;20110;-67
2022/06/11 07:20:02;;;;;;;5.45;4.93;;;;;;;;;;4206697;34;20533;-67
2022/06/11 07:22:56;;;;;;;6.68;5.00;;;;;;;;;;4206514;34;20117;-67
2022/06/11 07:25:22;;;;;;;7.37;5.03;;;;;;;;;;4206418;34;20114;-67
2022/06/11 07:27:55;;;;;;;7.60;4.50;;;;;;;;;;4219241;34;20193;-67
2022/06/11 07:30:23;;;;;;;5.47;4.53;;;;;;;;;;4206448;34;20093;-67
2022/06/11 07:32:56;;;;;;;4.65;4.18;;;;;;;;;;4206510;34;20088;-67
2022/06/11 07:35:22;;;;;;;6.75;4.68;;;;;;;;;;4206500;34;20212;-67
2022/06/11 07:37:49;;;;;;;7.78;4.75;;;;;;;;;;4219073;34;20216;-67
2022/06/11 07:40:18;;;;;;;5.53;4.93;;;;;;;;;;4219161;34;20449;-67
2022/06/11 07:42:44;;;;;;;7.95;4.28;;;;;;;;;;4219144;34;20109;-68
2022/06/11 07:45:11;;;;;;;5.95;4.25;;;;;;;;;;4217815;34;20201;-67
2022/06/11 07:47:55;;;;;;;3.92;3.53;;;;;;;;;;4206239;34;20113;-67
2022/06/11 07:50:30;;;;;;;7.73;3.87;;;;;;;;;;4208439;34;20470;-68
2022/06/11 07:52:57;;;;;;;6.60;3.60;;;;;;;;;;4219096;34;20096;-67
2022/06/11 07:55:23;;;;;;;3.70;2.90;;;;;;;;;;4206192;34;20104;-66
2022/06/11 07:57:50;;;;;;;4.57;3.40;;;;;;;;;;4206016;34;20121;-67
2022/06/11 08:00:23;;;;;;;6.00;3.83;;;;;;;;;;4219082;34;20555;-67
2022/06/11 08:02:49;;;;;;;6.07;3.97;;;;;;;;;;4206672;34;20144;-67
2022/06/11 08:05:15;;;;;;;5.82;3.45;;;;;;;;;;4219064;34;20682;-67
2022/06/11 08:07:42;;;;;;;3.87;3.33;;;;;;;;;;4205969;34;20109;-67
2022/06/11 08:10:08;;;;;;;5.68;3.47;;;;;;;;;;4218150;34;20090;-68
2022/06/11 08:12:34;;;;;;;5.70;3.95;;;;;;;;;;4219237;34;20131;-67
2022/06/11 08:15:00;;;;;;;4.05;2.90;;;;;;;;;;4218812;34;20129;-67
2022/06/11 08:17:27;;;;;;;4.37;3.53;;;;;;;;;;4206250;34;20105;-66
2022/06/11 08:19:54;;;;;;;4.32;3.10;;;;;;;;;;4219026;34;20208;-66
2022/06/11 08:22:20;;;;;;;3.67;3.37;;;;;;;;;;4206267;34;20113;-66
2022/06/11 08:24:47;;;;;;;4.22;3.12;;;;;;;;;;4205934;34;20120;-65
2022/06/11 08:27:14;;;;;;;10.52;3.60;;;;;;;;;;4218781;34;20114;-67
2022/06/11 08:29:40;;;;;;;4.68;3.30;;;;;;;;;;4206253;34;20454;-65
2022/06/11 08:32:07;;;;;;;7.65;3.65;;;;;;;;;;4218855;34;20117;-65
2022/06/11 08:34:42;;;;;;;4.28;3.58;;;;;;;;;;4218631;34;20090;-65
2022/06/11 08:37:09;;;;;;;4.60;3.22;;;;;;;;;;4205758;34;20101;-66
2022/06/11 08:39:35;;;;;;;6.12;3.20;;;;;;;;;;4217236;34;20552;-66
2022/06/11 08:42:03;;;;;;;3.83;3.25;;;;;;;;;;4205830;34;20097;-66
2022/06/11 08:44:32;;;;;;;3.42;3.10;;;;;;;;;;4218756;34;20505;-66
2022/06/11 08:47:01;;;;;;;6.93;3.00;;;;;;;;;;4218898;34;20185;-66
2022/06/11 08:49:32;;;;;;;7.28;2.70;;;;;;;;;;4205755;34;20522;-66
2022/06/11 08:52:11;;;;;;;3.47;2.65;;;;;;;;;;4218737;34;20101;-66
2022/06/11 08:54:40;;;;;;;2.70;2.40;;;;;;;;;;4218732;34;20119;-67
2022/06/11 08:57:43;;;;;;;3.60;2.70;;;;;;;;;;4194535;34;20128;-66
2022/06/11 09:00:14;;;;;;;3.60;2.62;;;;;;;;;;4205603;34;20112;-66
2022/06/11 09:02:55;;;;;;;2.78;2.42;;;;;;;;;;4205747;34;20202;-66
2022/06/11 09:05:45;;;;;;;7.18;3.12;;;;;;;;;;4218769;34;20176;-66
2022/06/11 09:08:40;;;;;;;3.20;2.90;;;;;;;;;;4218452;34;20101;-67
2022/06/11 09:11:28;;;;;;;6.50;3.28;;;;;;;;;;4218558;34;20846;-67
2022/06/11 09:13:56;;;;;;;4.40;2.95;;;;;;;;;;4218623;34;20509;-67
2022/06/11 09:16:56;;;;;;;5.68;3.20;;;;;;;;;;4218746;34;20212;-66
2022/06/11 09:19:49;;;;;;;3.20;2.90;;;;;;;;;;4218612;34;20089;-67
2022/06/11 09:22:36;;;;;;;3.17;2.87;;;;;;;;;;4205635;34;20128;-69
2022/06/11 09:25:36;;;;;;;2.75;2.50;;;;;;;;;;4205337;34;20129;-67
2022/06/11 09:28:09;;;;;;;3.28;2.97;;;;;;;;;;4218542;34;20094;-68
2022/06/11 09:30:49;;;;;;;2.92;2.40;;;;;;;;;;4205610;34;20179;-66
2022/06/11 09:33:20;;;;;;;3.70;2.87;;;;;;;;;;4205406;34;20609;-67
2022/06/11 09:35:54;;;;;;;6.10;3.60;;;;;;;;;;4218051;33;20204;-67
2022/06/11 09:38:40;;;;;;;6.03;2.90;;;;;;;;;;4204791;34;20124;-67
2022/06/11 09:41:29;;;;;;;5.70;2.60;;;;;;;;;;4217578;34;20139;-68
2022/06/11 09:44:18;;;;;;;4.00;2.78;;;;;;;;;;4204702;34;20125;-67
2022/06/11 09:46:53;;;;;;;4.45;2.60;;;;;;;;;;4217809;34;20509;-67
2022/06/11 09:49:19;;;;;;;2.62;2.40;;;;;;;;;;4217671;34;20485;-67
2022/06/11 09:52:15;;;;;;;4.28;2.58;;;;;;;;;;4217723;34;20120;-67
2022/06/11 09:55:27;;;;;;;3.03;2.60;;;;;;;;;;4217444;34;20130;-67
2022/06/11 09:58:11;;;;;;;4.37;2.75;;;;;;;;;;4204846;34;20078;-67
2022/06/11 10:00:42;;;;;;;3.45;2.20;;;;;;;;;;4204423;34;20505;-67
2022/06/11 10:03:35;;;;;;;6.65;2.90;;;;;;;;;;4204467;34;20125;-67
2022/06/11 10:06:10;;;;;;;3.15;2.72;;;;;;;;;;4204622;34;20097;-67
2022/06/11 10:08:39;;;;;;;5.30;3.10;;;;;;;;;;4204769;34;20144;-67
2022/06/11 10:11:06;;;;;;;9.20;3.17;;;;;;;;;;4217779;34;20235;-66
2022/06/11 10:16:48;;;;;;;5.78;2.80;;;;;;;;;;4206650;34;20102;-67
2022/06/11 10:19:36;;;;;;;5.95;2.65;;;;;;;;;;4204591;34;20200;-68
2022/06/11 10:22:41;;;;;;;5.90;4.25;;;;;;;;;;4204478;34;20090;-68
2022/06/11 10:25:22;;;;;;;2.92;2.62;;;;;;;;;;4200825;34;20197;-68
2022/06/11 10:27:56;;;;;;;3.33;2.85;;;;;;;;;;4204574;34;20213;-67
2022/06/11 10:31:10;;;;;;;3.72;2.70;;;;;;;;;;4204545;34;20133;-68
2022/06/11 10:33:57;;;;;;;3.83;2.62;;;;;;;;;;4196872;34;20193;-68
2022/06/11 10:36:46;;;;;;;5.10;2.90;;;;;;;;;;4219962;34;20526;-67
2022/06/11 10:39:20;;;;;;;2.92;2.70;;;;;;;;;;4213213;34;20576;-67
2022/06/11 10:42:04;;;;;;;5.62;2.85;;;;;;;;;;4219880;34;20124;-67
2022/06/11 10:44:38;;;;;;;4.75;2.97;;;;;;;;;;4220137;34;20197;-68
2022/06/11 10:47:24;;;;;;;3.95;2.95;;;;;;;;;;4219688;34;20211;-68
2022/06/11 10:49:57;;;;;;;;;;;;;;;;;;4220069;34;20469;-68
2022/06/11 10:52:42;;;;;;;2.92;2.58;;;;;;;;;;4219820;34;19995;-68
2022/06/11 10:55:25;;;;;;;3.60;2.67;;;;;;;;;;4219704;34;20174;-68
2022/06/11 10:57:52;;;;;;;3.42;2.65;;;;;;;;;;4218607;34;20117;-68
2022/06/11 11:00:26;;;;;;;2.62;2.40;;;;;;;;;;4206852;34;20185;-68
2022/06/11 11:03:00;;;;;;;2.85;2.55;;;;;;;;;;4207003;34;20506;-68
2022/06/11 11:05:44;;;;;;;3.25;2.50;;;;;;;;;;4206647;34;20188;-68
2022/06/11 11:08:11;;;;;;;2.87;2.58;;;;;;;;;;4206577;34;20477;-66
2022/06/11 11:10:37;;;;;;;2.58;2.37;;;;;;;;;;4219598;34;20434;-67
2022/06/11 11:13:39;;;;;;;3.80;2.30;;;;;;;;;;4218003;34;20136;-67
2022/06/11 11:16:19;;;;;;;3.00;2.58;;;;;;;;;;4219527;34;20133;-67
2022/06/11 11:19:04;;;;;;;4.65;2.80;;;;;;;;;;4219503;34;20517;-67
2022/06/11 11:21:54;;;;;;;3.03;2.58;;;;;;;;;;4206616;34;20102;-67
2022/06/11 11:25:02;;;;;;;2.90;2.42;;;;;;;;;;4206345;34;20518;-70
2022/06/11 11:27:41;;;;;;;2.70;2.50;;;;;;;;;;4212940;34;20129;-66
2022/06/11 11:30:20;;;;;;;4.28;2.65;;;;;;;;;;4207064;34;20144;-65
2022/06/11 11:32:47;;;;;;;2.75;2.50;;;;;;;;;;4219275;34;20108;-67
2022/06/11 11:35:21;;;;;;;4.90;2.55;;;;;;;;;;4219286;34;20124;-69
2022/06/11 11:37:59;;;;;;;6.03;2.87;;;;;;;;;;4206620;34;20086;-66
2022/06/11 11:40:29;;;;;;;3.55;2.50;;;;;;;;;;4219311;34;20194;-67
2022/06/11 11:42:57;;;;;;;3.42;2.62;;;;;;;;;;4219252;34;20117;-67
2022/06/11 11:45:28;;;;;;;3.78;2.00;;;;;;;;;;4219391;34;20089;-67
2022/06/11 11:48:04;;;;;;;4.28;2.50;;;;;;;;;;4219179;34;20208;-67
2022/06/11 11:50:40;;;;;;;4.37;2.50;;;;;;;;;;4218090;34;20111;-66
2022/06/11 11:53:11;;;;;;;2.90;2.70;;;;;;;;;;4206209;34;20177;-67
2022/06/11 11:55:41;;;;;;;8.13;2.78;;;;;;;;;;4219596;34;20125;-68
2022/06/11 11:58:18;;;;;;;2.65;2.30;;;;;;;;;;4219281;34;20453;-68
2022/06/11 12:00:54;;;;;;;5.45;3.37;;;;;;;;;;4206310;34;20188;-67
2022/06/11 12:03:42;;;;;;;3.53;3.08;;;;;;;;;;4219282;34;20081;-67
2022/06/11 12:06:12;;;;;;;4.28;2.80;;;;;;;;;;4219076;34;20542;-67
2022/06/11 12:08:42;;;;;;;3.37;2.72;;;;;;;;;;4218967;34;20133;-67
2022/06/11 12:11:39;;;;;;;3.20;2.90;;;;;;;;;;4217954;34;20132;-67
2022/06/11 12:14:16;;;;;;;3.05;2.72;;;;;;;;;;4219158;34;20093;-67
2022/06/11 12:16:54;;;;;;;4.82;3.08;;;;;;;;;;4206081;34;20124;-68
2022/06/11 12:19:19;;;;;;;7.78;2.78;;;;;;;;;;4219404;34;20184;-67
2022/06/11 12:21:57;;;;;;;5.55;3.42;;;;;;;;;;4218975;34;20144;-67
2022/06/11 12:24:49;;;;;;;6.95;2.75;;;;;;;;;;4206151;34;20109;-67
2022/06/11 12:27:41;;;;;;;8.00;3.17;;;;;;;;;;4218960;34;20232;-67
2022/06/11 12:30:20;;;;;;;4.00;3.10;;;;;;;;;;4204084;34;20129;-67
2022/06/11 12:32:49;;;;;;;3.75;2.80;;;;;;;;;;4218929;34;20546;-68
2022/06/11 12:35:24;;;;;;;4.03;3.25;;;;;;;;;;4205709;34;20109;-68
2022/06/11 12:38:12;;;;;;;5.30;3.62;;;;;;;;;;4217797;34;20120;-69
2022/06/11 12:41:21;;;;;;;3.85;3.42;;;;;;;;;;4205790;34;20150;-69
2022/06/11 12:43:47;;;;;;;6.30;3.78;;;;;;;;;;4163376;34;20110;-68
2022/06/11 12:46:22;;;;;;;5.55;4.15;;;;;;;;;;4211998;34;20138;-69
2022/06/11 12:49:08;;;;;;;5.78;3.95;;;;;;;;;;4205949;34;20481;-68
2022/06/11 12:51:52;;;;;;;3.70;3.33;;;;;;;;;;4196662;34;20128;-68
2022/06/11 12:54:27;;;;;;;4.45;3.60;;;;;;;;;;4205633;34;20209;-68
2022/06/11 12:57:43;;;;;;;3.12;2.83;;;;;;;;;;4218513;34;20119;-69
2022/06/11 13:00:32;;;;;;;3.30;2.40;;;;;;;;;;4200089;34;20536;-69
2022/06/11 13:03:17;;;;;;;3.12;2.83;;;;;;;;;;4218736;34;20201;-69
2022/06/11 13:05:58;;;;;;;4.68;3.10;;;;;;;;;;4218772;34;20111;-69
2022/06/11 13:08:33;;;;;;;5.10;2.83;;;;;;;;;;4205487;34;20561;-67
2022/06/11 13:11:11;;;;;;;5.43;3.95;;;;;;;;;;4194168;34;20536;-67
2022/06/11 13:13:49;;;;;;;4.35;2.65;;;;;;;;;;4218410;34;20104;-68
2022/06/11 13:16:25;;;;;;;4.57;2.55;;;;;;;;;;4218462;34;20116;-68
2022/06/11 13:19:13;;;;;;;5.53;3.20;;;;;;;;;;4205714;34;20469;-69
2022/06/11 13:21:54;;;;;;;4.90;3.65;;;;;;;;;;4218647;34;20109;-69
2022/06/11 13:24:25;;;;;;;5.15;3.53;;;;;;;;;;4218494;34;20263;-67
2022/06/11 13:27:01;;;;;;;11.07;3.47;;;;;;;;;;4218331;34;20115;-68
2022/06/11 13:29:41;;;;;;;5.53;3.55;;;;;;;;;;4205375;34;20561;-68
2022/06/11 13:32:22;;;;;;;3.30;3.00;;;;;;;;;;4205572;34;20117;-67
2022/06/11 13:35:37;;;;;;;4.35;3.08;;;;;;;;;;4205190;34;20188;-68
2022/06/11 13:38:20;;;;;;;6.28;3.10;;;;;;;;;;4170783;34;20113;-67
2022/06/11 13:40:53;;;;;;;4.10;3.15;;;;;;;;;;4205547;34;20121;-68
2022/06/11 13:43:26;;;;;;;3.55;3.15;;;;;;;;;;4205307;34;20117;-67
2022/06/11 13:46:07;;;;;;;5.50;2.55;;;;;;;;;;4218437;34;20098;-67
2022/06/11 13:49:00;;;;;;;5.35;2.67;;;;;;;;;;4205142;34;20183;-67
2022/06/11 13:51:28;;;;;;;4.05;3.20;;;;;;;;;;4216659;34;20128;-67
2022/06/11 13:57:09;;;;;;;4.00;2.60;;;;;;;;;;4207434;34;20525;-68
2022/06/11 13:59:59;;;;;;;4.62;3.15;;;;;;;;;;4218454;34;20105;-68
2022/06/11 14:02:28;;;;;;;8.18;2.83;;;;;;;;;;4218124;34;20524;-68
2022/06/11 14:05:03;;;;;;;3.87;2.80;;;;;;;;;;4218251;34;20089;-69
2022/06/11 14:07:31;;;;;;;4.05;3.10;;;;;;;;;;4218133;34;20097;-68
2022/06/11 14:10:23;;;;;;;2.78;2.58;;;;;;;;;;4205075;34;20137;-68
2022/06/11 14:12:52;;;;;;;5.40;3.35;;;;;;;;;;4218335;34;20116;-68
2022/06/11 14:15:31;;;;;;;6.37;3.72;;;;;;;;;;4205128;34;20116;-68
2022/06/11 14:18:06;;;;;;;9.75;5.75;;;;;;;;;;4205063;34;20085;-68
2022/06/11 14:20:33;;;;;;;4.43;3.45;;;;;;;;;;4218138;34;20566;-68
2022/06/11 14:23:20;;;;;;;5.82;3.62;;;;;;;;;;4218107;34;20136;-69
2022/06/11 14:25:49;;;;;;;5.28;3.12;;;;;;;;;;4207668;34;20521;-68
2022/06/11 14:28:14;;;;;;;3.50;3.20;;;;;;;;;;4204935;34;20124;-69
2022/06/11 14:31:00;;;;;;;5.75;3.12;;;;;;;;;;4218121;34;20133;-69
2022/06/11 14:33:37;;;;;;;3.70;2.92;;;;;;;;;;4217794;34;20518;-68
2022/06/11 14:36:20;;;;;;;7.32;3.40;;;;;;;;;;4218015;34;20117;-68
2022/06/11 14:38:55;;;;;;;4.22;3.67;;;;;;;;;;4205031;34;20184;-68
2022/06/11 14:41:40;;;;;;;11.57;4.35;;;;;;;;;;4217742;34;20104;-68
2022/06/11 14:44:06;;;;;;;7.53;3.33;;;;;;;;;;4217309;34;20114;-68
2022/06/11 14:46:42;;;;;;;4.55;3.58;;;;;;;;;;4217637;34;20502;-68
2022/06/11 14:49:20;;;;;;;3.40;3.10;;;;;;;;;;4217685;34;20507;-69
2022/06/11 14:52:04;;;;;;;6.00;3.10;;;;;;;;;;4217862;34;20097;-68
2022/06/11 14:54:39;;;;;;;6.35;3.30;;;;;;;;;;4217700;34;20573;-68
2022/06/11 14:57:14;;;;;;;6.53;3.10;;;;;;;;;;4204659;34;20124;-68
2022/06/11 14:59:58;;;;;;;5.03;3.00;;;;;;;;;;4217665;34;20093;-68
2022/06/11 15:02:36;;;;;;;6.05;3.00;;;;;;;;;;4217563;34;20115;-68
2022/06/11 15:05:20;;;;;;;5.85;2.53;;;;;;;;;;4217463;34;20109;-69
2022/06/11 15:08:22;;;;;;;7.12;2.40;;;;;;;;;;4217279;34;20093;-69
2022/06/11 15:11:01;;;;;;;7.47;2.83;;;;;;;;;;4217314;34;20557;-68
2022/06/11 15:13:30;;;;;;;2.80;2.47;;;;;;;;;;4204510;34;20206;-69
2022/06/11 15:16:15;;;;;;;4.03;2.53;;;;;;;;;;4217490;34;20167;-69
2022/06/11 15:18:44;;;;;;;5.37;2.87;;;;;;;;;;4205588;34;20102;-68
2022/06/11 15:21:26;;;;;;;5.68;2.58;;;;;;;;;;4219459;34;20213;-68
2022/06/11 15:23:55;;;;;;;6.93;2.95;;;;;;;;;;4206849;34;20094;-68
2022/06/11 15:26:34;;;;;;;7.22;2.90;;;;;;;;;;4206699;34;20141;-70
2022/06/11 15:29:27;;;;;;;4.70;2.85;;;;;;;;;;4219387;34;20104;-68
2022/06/11 15:31:56;;;;;;;11.07;3.40;;;;;;;;;;4219220;34;20427;-68
2022/06/11 15:34:45;;;;;;;4.03;2.70;;;;;;;;;;4206312;34;20110;-69
2022/06/11 15:37:17;;;;;;;3.40;2.62;;;;;;;;;;4197405;34;20200;-68
2022/06/11 15:39:49;;;;;;;5.40;2.85;;;;;;;;;;4219770;34;20089;-69
2022/06/11 15:42:21;;;;;;;9.73;3.17;;;;;;;;;;4219431;34;20098;-69
2022/06/11 15:44:47;;;;;;;4.97;3.03;;;;;;;;;;4219284;34;20190;-69
2022/06/11 15:47:17;;;;;;;7.75;3.20;;;;;;;;;;4219165;34;20104;-68
2022/06/11 15:49:48;;;;;;;3.83;2.85;;;;;;;;;;4219609;34;20133;-68
2022/06/11 15:52:21;;;;;;;6.60;3.00;;;;;;;;;;4219257;34;20449;-69
2022/06/11 15:55:12;;;;;;;5.68;3.08;;;;;;;;;;4219387;34;20481;-69
2022/06/11 15:57:46;;;;;;;4.03;3.15;;;;;;;;;;4219174;34;20113;-69
2022/06/11 16:00:34;;;;;;;6.20;3.30;;;;;;;;;;4219258;34;20679;-68
2022/06/11 16:03:15;;;;;;;6.07;4.03;;;;;;;;;;4219107;34;20195;-69
2022/06/11 16:06:18;;;;;;;4.43;3.10;;;;;;;;;;4219008;34;20328;-68
2022/06/11 16:08:54;;;;;;;5.68;3.78;;;;;;;;;;4206158;34;20081;-68